Time;durP1;ratioP1;P1;durP2;ratioP2;P2;SDS_P1;SDS_P2;PMS_P1;PMS_P2;Temp;Humidity;BMP_temperature;BMP_pressure;BME280_temperature;BME280_humidity;BME280_pressure;Samples;Min_cycle;Max_cycle;Signal;HPM_P1;HPM_P2
2022/08/08 00:02:31;;;;;;;5.32;1.08;;;19.90;96.50;;;;;;6148843;23;20002;-68
2022/08/08 00:05:00;;;;;;;0.93;0.60;;;19.90;96.30;;;;;;6146065;23;20092;-69
2022/08/08 00:07:38;;;;;;;2.83;1.00;;;20.00;96.40;;;;;;6151352;23;20088;-69
2022/08/08 00:10:12;;;;;;;1.42;0.70;;;20.00;96.80;;;;;;6150521;23;20005;-69
2022/08/08 00:12:54;;;;;;;1.80;0.52;;;20.00;97.40;;;;;;6150123;23;20009;-69
2022/08/08 00:15:27;;;;;;;2.08;0.55;;;20.10;97.10;;;;;;6150690;23;20347;-69
2022/08/08 00:17:58;;;;;;;2.63;0.80;;;20.10;97.00;;;;;;6151523;23;20435;-69
2022/08/08 00:20:49;;;;;;;1.10;0.60;;;20.00;97.50;;;;;;6148776;23;20012;-70
2022/08/08 00:23:20;;;;;;;1.25;0.88;;;20.10;97.10;;;;;;6144676;23;20017;-70
2022/08/08 00:25:51;;;;;;;2.47;0.75;;;20.00;96.70;;;;;;6142016;23;20037;-69
2022/08/08 00:28:22;;;;;;;0.57;0.55;;;20.00;96.70;;;;;;6141481;23;20734;-69
2022/08/08 00:30:54;;;;;;;2.00;0.63;;;20.00;96.80;;;;;;6143225;23;20013;-70
2022/08/08 00:33:25;;;;;;;2.47;0.70;;;20.00;96.40;;;;;;6143891;23;20040;-69
2022/08/08 00:36:27;;;;;;;1.13;0.73;;;19.90;96.20;;;;;;6145036;23;20012;-69
2022/08/08 00:39:09;;;;;;;0.68;0.50;;;20.00;96.20;;;;;;6124373;23;20043;-70
2022/08/08 00:42:08;;;;;;;14.27;1.00;;;19.90;96.00;;;;;;6143004;23;20018;-70
2022/08/08 00:44:46;;;;;;;1.40;0.82;;;20.00;96.00;;;;;;6144217;23;20010;-70
2022/08/08 00:47:50;;;;;;;1.10;0.52;;;20.00;95.90;;;;;;6144245;23;20086;-69
2022/08/08 00:50:28;;;;;;;1.40;0.80;;;20.00;95.70;;;;;;6144768;23;20018;-70
2022/08/08 00:53:14;;;;;;;6.90;0.85;;;20.00;95.40;;;;;;6145122;23;20001;-70
2022/08/08 00:56:09;;;;;;;2.05;0.75;;;20.00;95.80;;;;;;6144874;23;20018;-69
2022/08/08 00:59:07;;;;;;;1.73;0.88;;;20.00;95.80;;;;;;6060784;23;20026;-70
2022/08/08 01:01:54;;;;;;;2.80;1.10;;;20.00;96.10;;;;;;6140234;23;20017;-69
2022/08/08 01:04:25;;;;;;;8.55;1.38;;;20.00;96.00;;;;;;6145202;23;20025;-69
2022/08/08 01:07:16;;;;;;;2.45;0.90;;;20.00;95.60;;;;;;6144392;23;20010;-70
2022/08/08 01:10:03;;;;;;;0.75;0.68;;;19.90;95.50;;;;;;6144778;23;20001;-69
2022/08/08 01:12:52;;;;;;;3.38;0.55;;;19.90;95.80;;;;;;6144686;23;20360;-69
2022/08/08 01:15:40;;;;;;;1.38;0.70;;;19.90;96.00;;;;;;6144018;23;20088;-69
2022/08/08 01:18:12;;;;;;;1.90;0.70;;;19.90;96.60;;;;;;6142463;23;20009;-70
2022/08/08 01:21:16;;;;;;;4.10;0.90;;;19.80;96.70;;;;;;6145008;23;20016;-70
2022/08/08 01:24:27;;;;;;;8.48;1.00;;;19.80;97.10;;;;;;6110832;23;20068;-70
2022/08/08 01:27:22;;;;;;;1.85;0.90;;;19.80;97.40;;;;;;6109325;23;20017;-70
2022/08/08 01:30:25;;;;;;;1.55;0.85;;;19.80;97.70;;;;;;6063873;23;20011;-70
2022/08/08 01:33:14;;;;;;;1.25;0.65;;;19.80;97.20;;;;;;6144512;23;20510;-69
2022/08/08 01:36:13;;;;;;;0.80;0.80;;;19.90;96.90;;;;;;6143569;23;20108;-69
2022/08/08 01:38:54;;;;;;;2.13;0.88;;;19.90;96.90;;;;;;6144769;23;20032;-69
2022/08/08 01:41:30;;;;;;;0.73;0.60;;;19.90;97.30;;;;;;6143698;23;20006;-70
2022/08/08 01:44:35;;;;;;;5.28;0.70;;;19.90;97.20;;;;;;6143304;23;20009;-69
2022/08/08 01:47:18;;;;;;;32.10;1.70;;;19.90;96.70;;;;;;6141393;23;20347;-70
2022/08/08 01:50:21;;;;;;;1.85;0.70;;;19.90;96.90;;;;;;6118198;23;20001;-70
2022/08/08 01:52:57;;;;;;;0.85;0.60;;;19.90;97.30;;;;;;6142650;23;20005;-69
2022/08/08 01:55:29;;;;;;;2.97;0.77;;;19.90;97.70;;;;;;6143174;23;20165;-69
2022/08/08 01:58:17;;;;;;;1.67;0.90;;;19.80;98.30;;;;;;6141356;23;20435;-69
2022/08/08 02:00:53;;;;;;;1.05;0.80;;;19.80;98.80;;;;;;6144919;23;20005;-69
2022/08/08 02:03:33;;;;;;;3.25;0.80;;;19.80;99.10;;;;;;6142181;23;20423;-69
2022/08/08 02:06:01;;;;;;;6.78;0.80;;;19.80;98.50;;;;;;6143479;23;20009;-69
2022/08/08 02:08:27;;;;;;;2.95;0.70;;;19.80;98.20;;;;;;6143638;23;20006;-70
2022/08/08 02:11:11;;;;;;;1.60;0.80;;;19.80;99.20;;;;;;6143850;23;20012;-70
2022/08/08 02:14:07;;;;;;;0.82;0.60;;;19.80;98.90;;;;;;6141574;23;20006;-70
2022/08/08 02:17:02;;;;;;;1.00;0.60;;;19.80;99.20;;;;;;6139805;23;20009;-70
2022/08/08 02:19:38;;;;;;;2.00;0.70;;;19.70;99.00;;;;;;6098960;23;20052;-70
2022/08/08 02:25:17;;;;;;;2.67;0.70;;;19.70;98.00;;;;;;6141400;23;20032;-70
2022/08/08 02:27:54;;;;;;;0.77;0.60;;;19.70;97.80;;;;;;6143126;23;20016;-70
2022/08/08 02:30:36;;;;;;;1.00;0.65;;;19.70;97.70;;;;;;6144206;23;20084;-70
2022/08/08 02:33:08;;;;;;;;;;;19.60;97.80;;;;;;6142092;23;20006;-70
2022/08/08 02:35:42;;;;;;;5.97;0.65;;;19.60;98.10;;;;;;6143750;23;19905;-69
2022/08/08 02:38:19;;;;;;;2.55;0.80;;;19.50;98.20;;;;;;6140885;23;20005;-70
2022/08/08 02:41:03;;;;;;;1.20;0.70;;;19.50;97.60;;;;;;6141207;23;20001;-70
2022/08/08 02:43:47;;;;;;;1.40;0.70;;;19.50;97.50;;;;;;6139826;23;20005;-70
2022/08/08 02:46:33;;;;;;;1.27;0.50;;;19.50;98.00;;;;;;6140486;23;20013;-70
2022/08/08 02:48:59;;;;;;;2.55;0.55;;;19.50;97.80;;;;;;6141783;23;20009;-70
2022/08/08 02:51:50;;;;;;;0.93;0.65;;;19.40;97.60;;;;;;6143248;23;20639;-70
2022/08/08 02:54:37;;;;;;;1.60;0.77;;;19.40;97.30;;;;;;6102072;23;20093;-70
2022/08/08 02:57:14;;;;;;;1.23;0.60;;;19.40;97.20;;;;;;6141805;23;20022;-70
2022/08/08 02:59:45;;;;;;;2.88;0.90;;;19.40;96.80;;;;;;6143151;23;20005;-70
2022/08/08 03:02:45;;;;;;;1.02;0.50;;;19.40;96.90;;;;;;6143775;23;20092;-70
2022/08/08 03:05:25;;;;;;;3.60;0.75;;;19.40;96.30;;;;;;6142782;23;20009;-70
2022/08/08 03:08:21;;;;;;;2.28;0.80;;;19.50;96.30;;;;;;6144283;23;20065;-70
2022/08/08 03:11:24;;;;;;;0.70;0.50;;;19.50;96.40;;;;;;6140656;23;20033;-70
2022/08/08 03:14:08;;;;;;;1.77;0.60;;;19.50;97.00;;;;;;6144442;23;20032;-71
2022/08/08 03:16:33;;;;;;;1.52;0.93;;;19.30;96.80;;;;;;6144368;23;20004;-69
2022/08/08 03:19:36;;;;;;;3.20;0.85;;;19.30;97.50;;;;;;6143705;23;20005;-69
2022/08/08 03:22:02;;;;;;;0.82;0.65;;;19.20;97.20;;;;;;6144842;23;20006;-70
2022/08/08 03:24:27;;;;;;;3.50;0.60;;;19.20;97.00;;;;;;6146835;23;19997;-70
2022/08/08 03:27:08;;;;;;;0.80;0.65;;;19.20;97.30;;;;;;6144555;23;20013;-70
2022/08/08 03:29:39;;;;;;;2.00;0.70;;;19.20;98.00;;;;;;6145651;23;20048;-70
2022/08/08 03:34:51;;;;;;;2.25;0.60;;;19.10;98.60;;;;;;6146894;23;20017;-70
2022/08/08 03:37:17;;;;;;;0.82;0.65;;;19.10;99.00;;;;;;6145420;23;20006;-70
2022/08/08 03:39:44;;;;;;;0.93;0.55;;;19.00;98.80;;;;;;6146648;23;20378;-67
2022/08/08 03:42:15;;;;;;;3.53;0.55;;;19.10;98.30;;;;;;6143310;23;20398;-68
2022/08/08 03:44:41;;;;;;;2.72;0.88;;;19.10;98.00;;;;;;6145980;23;20080;-68
2022/08/08 03:47:07;;;;;;;2.15;1.00;;;19.10;98.00;;;;;;6144548;23;20118;-67
2022/08/08 03:49:32;;;;;;;18.27;1.77;;;19.10;98.20;;;;;;6144480;23;20114;-67
2022/08/08 03:51:58;;;;;;;2.78;0.88;;;19.10;98.60;;;;;;6143594;23;20906;-67
2022/08/08 03:54:24;;;;;;;2.58;0.60;;;19.00;98.90;;;;;;6145705;23;20012;-67
2022/08/08 03:56:50;;;;;;;1.77;0.93;;;18.90;99.00;;;;;;6143852;23;20688;-67
2022/08/08 03:59:16;;;;;;;2.38;0.90;;;18.80;99.10;;;;;;6145415;23;20006;-67
2022/08/08 04:01:42;;;;;;;4.38;0.80;;;18.80;99.40;;;;;;6142644;23;20005;-67
2022/08/08 04:04:08;;;;;;;3.13;0.75;;;18.80;99.50;;;;;;6143269;23;20009;-67
2022/08/08 04:06:34;;;;;;;0.57;0.57;;;18.80;99.70;;;;;;6144795;23;20077;-68
2022/08/08 04:09:02;;;;;;;2.65;0.70;;;18.80;99.70;;;;;;6144598;23;20006;-67
2022/08/08 04:11:30;;;;;;;2.20;0.82;;;18.90;99.90;;;;;;6146974;23;20005;-67
2022/08/08 04:13:56;;;;;;;3.70;0.85;;;18.90;99.90;;;;;;6143927;23;20084;-67
2022/08/08 04:16:21;;;;;;;2.80;0.73;;;19.00;99.90;;;;;;6141781;23;20048;-66
2022/08/08 04:18:47;;;;;;;4.25;1.02;;;19.00;99.90;;;;;;6145976;23;20010;-67
2022/08/08 04:21:14;;;;;;;16.58;1.50;;;19.00;99.90;;;;;;6145260;23;20033;-67
2022/08/08 04:23:40;;;;;;;2.47;0.90;;;19.10;99.90;;;;;;6141758;23;20064;-67
2022/08/08 04:26:06;;;;;;;3.78;0.88;;;19.10;99.90;;;;;;6144895;23;20438;-67
2022/08/08 04:28:32;;;;;;;1.10;0.60;;;19.10;99.90;;;;;;6143466;23;20002;-67
2022/08/08 04:30:58;;;;;;;1.95;0.88;;;19.00;99.90;;;;;;6144497;23;20081;-67
2022/08/08 04:33:24;;;;;;;2.83;1.00;;;19.00;99.90;;;;;;6142184;23;20701;-67
2022/08/08 04:35:49;;;;;;;1.17;0.80;;;19.10;99.90;;;;;;6145478;23;20016;-67
2022/08/08 04:38:15;;;;;;;1.48;0.80;;;19.10;99.90;;;;;;6142929;23;20005;-67
2022/08/08 04:40:41;;;;;;;3.60;0.70;;;19.10;99.90;;;;;;6142838;23;20328;-67
2022/08/08 04:43:07;;;;;;;1.80;0.90;;;19.00;99.90;;;;;;6143216;23;20060;-67
2022/08/08 04:45:32;;;;;;;1.65;0.75;;;19.00;99.90;;;;;;6144167;23;20065;-67
2022/08/08 04:47:59;;;;;;;3.15;0.90;;;19.10;99.90;;;;;;6143974;23;20044;-67
2022/08/08 04:50:25;;;;;;;3.08;0.75;;;19.10;99.90;;;;;;6144237;23;20105;-67
2022/08/08 04:52:54;;;;;;;1.77;0.80;;;19.10;99.90;;;;;;6145962;23;20060;-67
2022/08/08 04:55:20;;;;;;;3.17;0.60;;;19.20;99.90;;;;;;6143538;23;20004;-67
2022/08/08 04:57:45;;;;;;;1.17;0.57;;;19.30;99.90;;;;;;6141206;23;20021;-67
2022/08/08 05:00:11;;;;;;;3.20;1.30;;;19.40;99.90;;;;;;6143354;23;20006;-67
2022/08/08 05:02:38;;;;;;;2.45;0.85;;;19.60;99.90;;;;;;6145301;23;20014;-67
2022/08/08 05:05:04;;;;;;;3.45;0.63;;;19.70;99.90;;;;;;6144259;23;20002;-67
2022/08/08 05:07:29;;;;;;;0.82;0.65;;;19.80;99.90;;;;;;6118836;23;20021;-68
2022/08/08 05:09:55;;;;;;;1.45;0.80;;;19.80;99.90;;;;;;6143944;23;20604;-67
2022/08/08 05:12:21;;;;;;;0.80;0.68;;;19.80;99.90;;;;;;6144263;23;20633;-67
2022/08/08 05:14:46;;;;;;;4.10;0.60;;;19.80;99.90;;;;;;6141771;23;20524;-67
2022/08/08 05:17:12;;;;;;;1.00;0.90;;;19.90;99.90;;;;;;6145246;23;20387;-67
2022/08/08 05:19:37;;;;;;;1.77;0.80;;;20.00;99.90;;;;;;6143891;23;20013;-67
2022/08/08 05:22:08;;;;;;;5.78;0.95;;;20.10;99.70;;;;;;6143351;23;20001;-67
2022/08/08 05:24:34;;;;;;;2.10;0.60;;;20.20;99.90;;;;;;6145181;23;20001;-68
2022/08/08 05:27:00;;;;;;;3.28;0.80;;;20.40;99.60;;;;;;6143614;23;20013;-67
2022/08/08 05:29:25;;;;;;;2.55;0.43;;;20.40;97.90;;;;;;6142480;23;20502;-70
2022/08/08 05:31:51;;;;;;;0.35;0.35;;;20.60;97.10;;;;;;6143031;23;20080;-71
2022/08/08 05:34:33;;;;;;;1.95;0.60;;;20.60;97.30;;;;;;6142203;23;20068;-71
2022/08/08 05:37:01;;;;;;;0.30;0.28;;;20.70;96.20;;;;;;6144915;23;20005;-70
2022/08/08 05:39:27;;;;;;;0.63;0.38;;;20.90;96.30;;;;;;6143798;23;20013;-70
2022/08/08 05:41:53;;;;;;;7.03;0.77;;;20.90;95.10;;;;;;6143730;23;20002;-70
2022/08/08 05:44:28;;;;;;;0.98;0.50;;;21.00;94.80;;;;;;6142473;23;20092;-71
2022/08/08 05:46:55;;;;;;;1.00;0.30;;;21.10;94.50;;;;;;6143974;23;20053;-71
2022/08/08 05:49:21;;;;;;;1.98;0.60;;;21.20;94.00;;;;;;6139970;23;20009;-71
2022/08/08 05:51:48;;;;;;;0.73;0.40;;;21.30;92.80;;;;;;6144397;23;20044;-70
2022/08/08 05:54:15;;;;;;;1.13;0.50;;;21.50;92.50;;;;;;6143905;23;20013;-70
2022/08/08 05:56:42;;;;;;;0.75;0.40;;;21.60;91.00;;;;;;6143750;23;20336;-70
2022/08/08 05:59:20;;;;;;;0.95;0.50;;;21.60;90.90;;;;;;6142342;23;20010;-71
2022/08/08 06:01:55;;;;;;;0.93;0.40;;;21.70;90.30;;;;;;6142953;23;20006;-69
2022/08/08 06:04:28;;;;;;;1.25;0.40;;;21.80;89.30;;;;;;6142835;23;20008;-70
2022/08/08 06:06:56;;;;;;;0.40;0.40;;;21.90;88.80;;;;;;6144232;23;20017;-70
2022/08/08 06:09:28;;;;;;;7.90;0.70;;;22.00;88.50;;;;;;6143395;23;20012;-71
2022/08/08 06:11:59;;;;;;;1.55;0.40;;;22.10;89.00;;;;;;6144010;23;20013;-71
2022/08/08 06:14:26;;;;;;;1.05;0.40;;;22.10;88.80;;;;;;6114580;23;20878;-71
2022/08/08 06:17:00;;;;;;;3.28;0.70;;;22.20;89.40;;;;;;6143240;23;20391;-71
2022/08/08 06:19:27;;;;;;;2.03;0.80;;;22.30;88.80;;;;;;6142220;23;20037;-71
2022/08/08 06:21:53;;;;;;;1.20;0.60;;;22.40;90.20;;;;;;6144308;23;20937;-71
2022/08/08 06:24:19;;;;;;;5.03;0.98;;;22.50;87.80;;;;;;6136254;23;20001;-71
2022/08/08 06:26:54;;;;;;;3.40;0.85;;;22.60;88.40;;;;;;6139611;23;20009;-70
2022/08/08 06:29:30;;;;;;;3.05;0.80;;;22.70;87.30;;;;;;6114190;23;20080;-70
2022/08/08 06:32:00;;;;;;;2.08;0.40;;;22.80;88.00;;;;;;6139072;23;20017;-68
2022/08/08 06:34:29;;;;;;;2.20;0.55;;;22.80;88.50;;;;;;6139560;23;20105;-69
2022/08/08 06:36:58;;;;;;;2.05;0.60;;;23.00;86.40;;;;;;6141257;23;20002;-70
2022/08/08 06:39:28;;;;;;;0.75;0.40;;;23.00;84.30;;;;;;6140970;23;20002;-69
2022/08/08 06:42:04;;;;;;;3.53;0.40;;;23.10;84.50;;;;;;6143317;23;20435;-70
2022/08/08 06:44:31;;;;;;;0.40;0.40;;;23.10;83.20;;;;;;6105554;23;20010;-70
2022/08/08 06:46:57;;;;;;;0.40;0.40;;;23.00;83.50;;;;;;6139479;23;20025;-69
2022/08/08 06:49:23;;;;;;;2.53;0.70;;;23.10;82.40;;;;;;6143249;23;20012;-69
2022/08/08 06:51:49;;;;;;;1.77;0.60;;;23.20;83.10;;;;;;6144819;23;20072;-70
2022/08/08 06:54:15;;;;;;;1.27;0.45;;;23.30;82.40;;;;;;6141009;23;19997;-70
2022/08/08 06:56:42;;;;;;;1.85;0.20;;;23.30;81.30;;;;;;6142125;23;20029;-70
2022/08/08 06:59:09;;;;;;;1.58;0.50;;;23.40;82.40;;;;;;6145036;23;20548;-69
2022/08/08 07:01:45;;;;;;;1.10;0.30;;;23.40;80.30;;;;;;6142114;23;20427;-70
2022/08/08 07:04:24;;;;;;;1.75;0.50;;;23.50;81.20;;;;;;6143500;23;20021;-70
2022/08/08 07:06:59;;;;;;;2.53;0.40;;;23.60;81.30;;;;;;6145298;23;20147;-70
2022/08/08 07:09:39;;;;;;;0.93;0.40;;;23.60;80.40;;;;;;6117785;23;20096;-70
2022/08/08 07:12:12;;;;;;;6.03;0.70;;;23.70;81.30;;;;;;6144375;23;20609;-70
2022/08/08 07:15:05;;;;;;;3.20;0.38;;;23.80;80.70;;;;;;6140569;23;20002;-69
2022/08/08 07:17:36;;;;;;;4.35;0.80;;;23.90;79.10;;;;;;6134164;23;20020;-69
2022/08/08 07:20:02;;;;;;;3.13;0.63;;;24.10;78.00;;;;;;6144935;23;20009;-69
2022/08/08 07:22:40;;;;;;;2.65;0.70;;;24.10;79.20;;;;;;6142875;23;20037;-68
2022/08/08 07:25:08;;;;;;;11.98;0.77;;;24.10;78.10;;;;;;6145602;23;20016;-84
2022/08/08 07:27:44;;;;;;;1.08;0.55;;;24.10;78.80;;;;;;6144945;23;20069;-72
2022/08/08 07:30:11;;;;;;;4.38;0.60;;;24.10;76.20;;;;;;6143176;23;20016;-71
2022/08/08 07:32:38;;;;;;;1.63;0.50;;;24.00;77.10;;;;;;6116638;23;20061;-72
2022/08/08 07:35:05;;;;;;;0.88;0.50;;;24.00;77.90;;;;;;6142873;23;20008;-72
2022/08/08 07:37:32;;;;;;;1.40;0.63;;;24.10;75.30;;;;;;6145609;23;20029;-72
2022/08/08 07:39:58;;;;;;;3.30;0.65;;;24.10;75.30;;;;;;6145425;23;20016;-72
2022/08/08 07:42:24;;;;;;;3.58;0.50;;;24.00;75.30;;;;;;6144364;23;20491;-72
2022/08/08 07:44:50;;;;;;;2.70;0.40;;;24.00;75.40;;;;;;6144605;23;20331;-72
2022/08/08 07:47:16;;;;;;;3.65;0.45;;;23.90;74.30;;;;;;6140706;23;20024;-71
2022/08/08 07:49:41;;;;;;;0.90;0.60;;;23.80;73.00;;;;;;6145475;23;20707;-71
2022/08/08 07:52:10;;;;;;;1.20;0.60;;;23.70;76.30;;;;;;6140461;23;20005;-71
2022/08/08 07:54:50;;;;;;;3.38;0.90;;;23.80;76.40;;;;;;6117913;23;19997;-70
2022/08/08 07:57:28;;;;;;;5.95;0.70;;;23.80;77.00;;;;;;6144215;23;20526;-71
2022/08/08 08:00:04;;;;;;;3.08;0.60;;;23.80;78.50;;;;;;6117135;23;20010;-74
2022/08/08 08:02:46;;;;;;;1.42;0.70;;;24.00;77.30;;;;;;6143258;23;20005;-69
2022/08/08 08:05:26;;;;;;;1.00;0.50;;;24.10;76.50;;;;;;6142921;23;20002;-69
2022/08/08 08:08:02;;;;;;;1.73;0.55;;;24.10;75.40;;;;;;6143632;23;20037;-80
2022/08/08 08:10:29;;;;;;;0.63;0.52;;;24.20;76.40;;;;;;6144520;23;20006;-71
2022/08/08 08:13:20;;;;;;;1.17;0.45;;;24.10;74.70;;;;;;6140414;23;20010;-70
2022/08/08 08:16:02;;;;;;;1.45;0.70;;;24.20;75.60;;;;;;6136297;23;20219;-71
2022/08/08 08:18:46;;;;;;;2.67;0.50;;;24.10;76.70;;;;;;6140182;23;20016;-71
2022/08/08 08:21:13;;;;;;;0.95;0.70;;;24.10;77.50;;;;;;6144152;23;20001;-71
2022/08/08 08:23:39;;;;;;;1.05;0.60;;;24.00;76.20;;;;;;6143643;23;20068;-69
2022/08/08 08:26:05;;;;;;;1.50;0.43;;;24.00;76.10;;;;;;6138396;23;20096;-69
2022/08/08 08:28:31;;;;;;;9.57;0.85;;;23.90;77.00;;;;;;6141796;23;20437;-69
2022/08/08 08:31:02;;;;;;;4.38;0.98;;;24.00;77.00;;;;;;6142934;23;20025;-69
2022/08/08 08:33:28;;;;;;;4.45;0.77;;;24.00;76.90;;;;;;6143776;23;20005;-69
2022/08/08 08:35:54;;;;;;;3.13;0.85;;;24.10;77.50;;;;;;6142708;23;20088;-69
2022/08/08 08:38:20;;;;;;;2.28;0.57;;;24.20;79.50;;;;;;6139636;23;20002;-69
2022/08/08 08:40:46;;;;;;;1.38;0.40;;;24.30;79.50;;;;;;6142854;23;20506;-69
2022/08/08 08:43:13;;;;;;;1.75;0.63;;;24.40;78.60;;;;;;6142043;23;20084;-69
2022/08/08 08:45:39;;;;;;;2.75;0.75;;;24.30;80.10;;;;;;6144642;23;20013;-69
2022/08/08 08:48:06;;;;;;;2.58;0.60;;;24.40;77.50;;;;;;6138351;23;20006;-69
2022/08/08 08:50:33;;;;;;;2.15;0.70;;;24.30;78.00;;;;;;6130217;23;20013;-69
2022/08/08 08:53:03;;;;;;;1.15;0.60;;;24.40;79.30;;;;;;6135566;23;20048;-69
2022/08/08 08:55:32;;;;;;;2.72;0.50;;;24.30;79.10;;;;;;6131539;23;20021;-69
2022/08/08 08:57:59;;;;;;;1.35;0.50;;;24.20;78.80;;;;;;6133175;23;20009;-68
2022/08/08 09:00:26;;;;;;;0.85;0.60;;;24.20;78.80;;;;;;6143480;23;20009;-69
2022/08/08 09:02:52;;;;;;;2.28;0.80;;;24.30;79.80;;;;;;6146075;23;20387;-69
2022/08/08 09:05:20;;;;;;;1.48;0.57;;;24.40;79.10;;;;;;6145625;23;20005;-68
2022/08/08 09:07:47;;;;;;;6.43;1.10;;;24.50;78.60;;;;;;6147679;23;20113;-69
2022/08/08 09:10:15;;;;;;;1.38;0.82;;;24.60;78.70;;;;;;6146479;23;20014;-69
2022/08/08 09:12:44;;;;;;;1.23;0.63;;;24.70;78.10;;;;;;6140059;23;20238;-69
2022/08/08 09:15:10;;;;;;;2.38;0.70;;;24.80;76.80;;;;;;6142861;23;20001;-69
2022/08/08 09:17:37;;;;;;;4.70;0.68;;;24.80;76.30;;;;;;6141138;23;20005;-69
2022/08/08 09:20:04;;;;;;;0.88;0.68;;;24.80;78.40;;;;;;6141770;23;20008;-69
2022/08/08 09:22:30;;;;;;;1.25;0.60;;;24.80;76.40;;;;;;6142926;23;20403;-69
2022/08/08 09:24:56;;;;;;;2.17;0.60;;;24.70;76.50;;;;;;6143391;23;20016;-69
2022/08/08 09:27:22;;;;;;;0.73;0.60;;;24.70;75.20;;;;;;6144009;23;20495;-68
2022/08/08 09:30:05;;;;;;;1.08;0.70;;;24.60;77.80;;;;;;6145312;23;20012;-68
2022/08/08 09:32:38;;;;;;;2.70;0.73;;;24.70;77.30;;;;;;6144277;23;20503;-68
2022/08/08 09:35:07;;;;;;;1.48;0.70;;;24.70;77.50;;;;;;6140384;23;20063;-68
2022/08/08 09:37:44;;;;;;;0.95;0.60;;;24.90;75.60;;;;;;6140428;23;20029;-68
2022/08/08 09:40:12;;;;;;;1.02;0.60;;;24.90;76.80;;;;;;6116031;23;20027;-68
2022/08/08 09:42:44;;;;;;;2.72;0.90;;;25.00;76.60;;;;;;6143329;23;20010;-68
2022/08/08 09:45:19;;;;;;;0.63;0.63;;;25.10;77.20;;;;;;6144716;23;20077;-67
2022/08/08 09:47:46;;;;;;;3.30;0.90;;;25.20;76.60;;;;;;6116982;23;20022;-68
2022/08/08 09:50:18;;;;;;;8.07;0.90;;;25.20;76.80;;;;;;6142397;23;20375;-77
2022/08/08 09:52:49;;;;;;;2.03;0.77;;;25.10;77.70;;;;;;6142096;23;20044;-76
2022/08/08 09:55:15;;;;;;;7.20;0.77;;;25.10;77.60;;;;;;6138286;23;20736;-75
2022/08/08 09:57:45;;;;;;;1.02;0.60;;;25.10;77.90;;;;;;6136798;23;20017;-76
2022/08/08 10:00:12;;;;;;;2.03;0.90;;;25.20;76.80;;;;;;6141731;23;20015;-75
2022/08/08 10:02:42;;;;;;;1.77;0.70;;;25.30;76.90;;;;;;6144272;23;20009;-75
2022/08/08 10:05:11;;;;;;;2.25;0.73;;;25.30;77.60;;;;;;6143158;23;19997;-75
2022/08/08 10:08:03;;;;;;;0.75;0.65;;;25.40;74.80;;;;;;6143168;23;20446;-76
2022/08/08 10:10:34;;;;;;;5.30;1.00;;;25.40;75.40;;;;;;6114864;23;20016;-73
2022/08/08 10:13:01;;;;;;;2.30;0.70;;;25.40;76.60;;;;;;6114077;23;20088;-72
2022/08/08 10:15:35;;;;;;;2.15;0.75;;;25.50;77.80;;;;;;6115462;23;20855;-72
2022/08/08 10:18:01;;;;;;;2.05;0.60;;;25.60;77.10;;;;;;6136983;23;20041;-71
2022/08/08 10:20:28;;;;;;;4.10;1.00;;;25.70;76.70;;;;;;6134759;23;20044;-72
2022/08/08 10:22:59;;;;;;;2.47;0.80;;;25.70;74.60;;;;;;6141745;23;20063;-72
2022/08/08 10:25:26;;;;;;;7.20;0.95;;;25.80;73.90;;;;;;6143224;23;20008;-71
2022/08/08 10:27:53;;;;;;;4.95;0.90;;;25.80;73.00;;;;;;6142151;23;20010;-72
2022/08/08 10:30:21;;;;;;;0.75;0.65;;;25.80;72.80;;;;;;6140851;23;19997;-72
2022/08/08 10:32:56;;;;;;;1.88;1.10;;;25.70;70.80;;;;;;6143189;23;20335;-72
2022/08/08 10:35:24;;;;;;;3.70;0.70;;;25.70;72.20;;;;;;6119710;23;20505;-72
2022/08/08 10:37:53;;;;;;;1.55;0.85;;;25.70;73.00;;;;;;6146890;23;20056;-72
2022/08/08 10:40:20;;;;;;;2.13;1.40;;;25.80;72.70;;;;;;6144606;23;20022;-72
2022/08/08 10:42:48;;;;;;;0.90;0.65;;;25.70;72.90;;;;;;6147549;23;20546;-72
2022/08/08 10:45:14;;;;;;;1.48;0.70;;;25.70;73.80;;;;;;6144738;23;20049;-72
2022/08/08 10:47:41;;;;;;;1.80;0.75;;;25.80;72.60;;;;;;6121067;23;20014;-72
2022/08/08 10:50:08;;;;;;;1.67;0.73;;;25.80;75.20;;;;;;6146357;23;20286;-72
2022/08/08 10:52:39;;;;;;;0.93;0.60;;;25.80;77.60;;;;;;6147557;23;20009;-72
2022/08/08 10:55:14;;;;;;;2.35;1.45;;;25.80;78.90;;;;;;6120736;23;20005;-72
2022/08/08 10:57:46;;;;;;;5.53;0.80;;;25.80;75.50;;;;;;6148018;23;20335;-72
2022/08/08 11:00:13;;;;;;;2.77;0.80;;;25.80;75.70;;;;;;6145391;23;20005;-71
2022/08/08 11:02:39;;;;;;;1.08;0.60;;;25.80;76.30;;;;;;6146873;23;20239;-72
2022/08/08 11:05:08;;;;;;;1.10;1.00;;;25.80;76.30;;;;;;6145993;23;20002;-71
2022/08/08 11:07:37;;;;;;;6.40;1.15;;;25.70;78.10;;;;;;6146861;23;20017;-71
2022/08/08 11:10:11;;;;;;;1.83;0.95;;;25.60;80.50;;;;;;6147229;23;20084;-71
2022/08/08 11:12:49;;;;;;;2.92;0.93;;;25.50;82.20;;;;;;6145266;23;20006;-71
2022/08/08 11:15:17;;;;;;;1.23;1.13;;;25.40;83.20;;;;;;6146626;23;20016;-71
2022/08/08 11:17:44;;;;;;;1.13;1.00;;;25.30;82.90;;;;;;6144207;23;20081;-71
2022/08/08 11:20:13;;;;;;;6.40;1.20;;;25.20;84.80;;;;;;6147298;23;20013;-71
2022/08/08 11:22:39;;;;;;;3.72;1.00;;;25.00;84.90;;;;;;6146073;23;20427;-70
2022/08/08 11:25:10;;;;;;;2.90;1.17;;;24.80;86.90;;;;;;6143842;23;20372;-72
2022/08/08 11:27:36;;;;;;;2.83;1.15;;;24.50;87.20;;;;;;6117834;23;20079;-72
2022/08/08 11:30:05;;;;;;;4.05;1.17;;;24.40;88.30;;;;;;6118895;23;20025;-73
2022/08/08 11:32:39;;;;;;;3.53;1.17;;;24.20;89.30;;;;;;6143620;23;20447;-72
2022/08/08 11:35:14;;;;;;;1.67;1.23;;;24.20;90.40;;;;;;6143913;23;19998;-73
2022/08/08 11:37:41;;;;;;;3.97;1.38;;;24.10;91.00;;;;;;6144700;23;20009;-72
2022/08/08 11:40:10;;;;;;;6.13;1.52;;;24.00;91.40;;;;;;6144182;23;20001;-73
2022/08/08 11:42:37;;;;;;;6.07;1.40;;;24.00;91.60;;;;;;6146554;23;20001;-73
2022/08/08 11:45:07;;;;;;;3.97;1.70;;;24.00;92.10;;;;;;6120363;23;20016;-72
2022/08/08 11:47:34;;;;;;;1.92;1.60;;;23.90;93.20;;;;;;6139441;23;20013;-73
2022/08/08 11:50:09;;;;;;;2.15;1.83;;;23.70;94.00;;;;;;6145452;23;20013;-74
2022/08/08 11:52:35;;;;;;;9.90;2.00;;;23.70;94.90;;;;;;6146879;23;20008;-74
2022/08/08 11:55:12;;;;;;;1.60;1.50;;;23.60;96.40;;;;;;6145567;23;20593;-74
2022/08/08 11:57:38;;;;;;;1.80;1.70;;;23.60;98.50;;;;;;6146813;23;20025;-73
2022/08/08 12:00:06;;;;;;;3.08;1.77;;;23.50;98.10;;;;;;6145598;23;20029;-73
2022/08/08 12:02:43;;;;;;;2.08;1.77;;;23.40;99.10;;;;;;6146425;23;20005;-74
2022/08/08 12:05:10;;;;;;;2.28;2.00;;;23.40;99.70;;;;;;6144034;23;20088;-74
2022/08/08 12:07:53;;;;;;;4.65;2.03;;;23.40;99.80;;;;;;6146847;23;20076;-73
2022/08/08 12:10:22;;;;;;;2.97;1.90;;;23.30;99.90;;;;;;6145065;23;20053;-75
2022/08/08 12:12:49;;;;;;;2.33;2.03;;;23.20;99.90;;;;;;6145518;23;20068;-74
2022/08/08 12:15:30;;;;;;;17.00;2.72;;;23.10;99.90;;;;;;6143180;23;20365;-74
2022/08/08 12:17:56;;;;;;;3.25;2.30;;;22.90;99.90;;;;;;6147238;23;20005;-73
2022/08/08 12:20:22;;;;;;;2.47;2.28;;;22.70;99.90;;;;;;6140240;23;20567;-73
2022/08/08 12:22:50;;;;;;;2.75;2.13;;;22.60;99.90;;;;;;6146424;23;20009;-73
2022/08/08 12:25:20;;;;;;;4.90;2.60;;;22.60;99.90;;;;;;6142961;23;20063;-74
2022/08/08 12:27:46;;;;;;;2.58;2.38;;;22.60;99.90;;;;;;6145540;23;20024;-74
2022/08/08 12:30:12;;;;;;;6.13;2.72;;;22.50;99.90;;;;;;6143913;23;20001;-74
2022/08/08 12:32:43;;;;;;;3.00;2.70;;;22.40;99.90;;;;;;6143321;23;20008;-75
2022/08/08 12:35:22;;;;;;;2.95;2.75;;;22.40;99.90;;;;;;6143412;23;20005;-74
2022/08/08 12:38:06;;;;;;;3.20;2.90;;;22.30;99.90;;;;;;6145057;23;20044;-74
2022/08/08 12:40:41;;;;;;;4.28;3.20;;;22.30;99.90;;;;;;6146539;23;20006;-75
2022/08/08 12:43:08;;;;;;;4.20;3.20;;;22.30;99.90;;;;;;6144857;23;20033;-76
2022/08/08 12:45:36;;;;;;;4.32;2.78;;;22.30;99.90;;;;;;6116798;23;20014;-74
2022/08/08 12:48:03;;;;;;;2.90;2.70;;;22.30;99.90;;;;;;6145890;23;20009;-73
2022/08/08 12:50:43;;;;;;;5.13;2.67;;;22.20;99.90;;;;;;6117545;23;20457;-73
2022/08/08 13:10:20;;;;;;;2.90;2.70;;;21.90;99.90;;;;;;6161992;22;20032;-73
2022/08/08 13:12:47;;;;;;;3.42;2.75;;;21.80;99.90;;;;;;6145126;23;20020;-73
2022/08/08 13:15:17;;;;;;;2.60;2.40;;;21.80;99.90;;;;;;6147536;23;20008;-73
2022/08/08 13:17:43;;;;;;;3.42;2.97;;;21.90;99.90;;;;;;6120385;23;20013;-73
2022/08/08 13:20:19;;;;;;;3.55;2.90;;;21.90;99.90;;;;;;6145879;23;20009;-73
2022/08/08 13:22:46;;;;;;;3.92;2.53;;;22.00;99.90;;;;;;6145758;23;20002;-73
2022/08/08 13:25:21;;;;;;;3.10;2.90;;;22.10;99.90;;;;;;6119355;23;20343;-75
2022/08/08 13:27:55;;;;;;;3.72;2.78;;;22.10;99.90;;;;;;6142421;23;20476;-76
2022/08/08 13:30:25;;;;;;;3.25;2.72;;;22.10;99.90;;;;;;6146844;23;20006;-74
2022/08/08 13:33:00;;;;;;;3.40;3.08;;;22.20;99.90;;;;;;6141335;23;20590;-74
2022/08/08 13:35:26;;;;;;;4.05;2.70;;;22.20;99.90;;;;;;6145384;23;20454;-73
2022/08/08 13:38:03;;;;;;;2.80;2.60;;;22.20;99.90;;;;;;6146082;23;20001;-73
2022/08/08 13:40:29;;;;;;;2.95;2.72;;;22.20;99.90;;;;;;6146362;23;20056;-74